Main page
METAR-TAF:

METAR-TAF

Airports :

Rabat–Salé Airport

Rabat, Morocco

latitude: 34-03N, longitude: 006-46W, elevation: 84 m

Current weather observation

The report was made 9 minutes ago, at 19:30 UTC
Calm wind
Temperature 16°C
Humidity 100%
Pressure 1015 hPa
Visibility: 5000 m
Scattered clouds at a height of 1600 ft

METAR: GMME 281930Z 00000KT 5000 SCT016 16/16 Q1015 NOSIG

Time: 20:39 (19:39 UTC)

Forecast

The report was made 2 hours and 39 minutes ago, at 17:00 UTC
Forecast valid from 28 at 18 UTC to 29 at 24 UTC
Wind 4 kt from the West/Northwest
Visibility: 8000 m
Few clouds at a height of 1600 ft
Temporary
from 28 at 22 UTC to 29 at 07 UTC
Wind 2 kt from variable directions
Visibility: 3000 m
Scattered clouds at a height of 800 ft
Broken clouds at a height of 1300 ft
mist
Becoming
from 29 at 20 UTC to 29 at 24 UTC
Wind 6 kt from the East/Southeast

TAF: GMME 281700Z 2818/2924 30004KT 8000 FEW016 TEMPO 2822/2907 VRB02KT 3000 BR SCT008 BKN013 BECMG 2920/2924 12006KT

Weather observations and forecasts of more than 4000 airports (METAR and TAF reports).

The available stations are represented by yellow and red dots on the map.

Hover mouse over dot to see the name of the station.

Then click to see weather observations and forecasts.

To change the map : click on the green buttons with a black cross to zoom in, on the green button with a dash to zoom out, or on the green arrows for adjacent maps.


METAR-TAF: